createdAt,value
2023-02-06T00:00:10.894Z,2.08
2023-02-06T00:02:37.376Z,2.03
2023-02-06T00:05:04.041Z,1.95
2023-02-06T00:07:30.568Z,1.92
2023-02-06T00:09:56.994Z,2.33
2023-02-06T00:12:23.419Z,2.38
2023-02-06T00:14:49.895Z,2.50
2023-02-06T00:17:16.366Z,2.20
2023-02-06T00:19:44.492Z,2.70
2023-02-06T00:22:13.401Z,2.75
2023-02-06T00:24:43.022Z,2.72
2023-02-06T00:27:09.444Z,2.95
2023-02-06T00:29:35.906Z,3.47
2023-02-06T00:32:02.405Z,3.20
2023-02-06T00:34:28.849Z,3.17
2023-02-06T00:36:55.288Z,3.38
2023-02-06T00:39:21.742Z,3.40
2023-02-06T00:41:48.190Z,3.05
2023-02-06T00:44:14.645Z,3.92
2023-02-06T00:46:41.761Z,3.17
2023-02-06T00:49:08.258Z,3.45
2023-02-06T00:51:38.704Z,4.28
2023-02-06T00:54:06.736Z,4.03
2023-02-06T00:56:33.366Z,3.28
2023-02-06T00:58:59.946Z,3.20
2023-02-06T01:01:27.035Z,2.92
2023-02-06T01:03:54.525Z,3.40
2023-02-06T01:06:20.957Z,3.58
2023-02-06T01:08:50.842Z,3.45
2023-02-06T01:11:20.657Z,4.38
2023-02-06T01:13:47.480Z,4.30
2023-02-06T01:16:18.249Z,3.75
2023-02-06T01:18:44.738Z,3.78
2023-02-06T01:21:14.236Z,3.60
2023-02-06T01:23:41.222Z,4.90
2023-02-06T01:26:12.094Z,4.05
2023-02-06T01:28:41.512Z,4.32
2023-02-06T01:31:29.040Z,4.47
2023-02-06T01:33:57.982Z,4.50
2023-02-06T01:36:25.411Z,4.85
2023-02-06T01:38:52.523Z,4.57
2023-02-06T01:41:22.054Z,5.28
2023-02-06T01:44:12.453Z,4.78
2023-02-06T01:46:41.007Z,5.93
2023-02-06T01:49:12.420Z,4.63
2023-02-06T01:51:39.996Z,4.18
2023-02-06T01:54:08.141Z,4.78
2023-02-06T01:56:43.603Z,4.15
2023-02-06T01:59:12.368Z,3.47
2023-02-06T02:01:40.369Z,4.80
2023-02-06T02:04:10.705Z,4.00
2023-02-06T02:06:37.128Z,3.15
2023-02-06T02:09:06.832Z,4.30
2023-02-06T02:11:36.441Z,4.05
2023-02-06T02:14:06.367Z,4.03
2023-02-06T02:17:06.268Z,4.43
2023-02-06T02:19:57.736Z,4.35
2023-02-06T02:22:42.185Z,4.15
2023-02-06T02:25:38.869Z,5.00
2023-02-06T02:28:19.043Z,6.55
2023-02-06T02:31:17.753Z,4.75
2023-02-06T02:34:21.768Z,4.28
2023-02-06T02:37:11.366Z,4.05
2023-02-06T02:39:47.812Z,5.10
2023-02-06T02:42:38.311Z,4.40
2023-02-06T02:45:19.095Z,4.82
2023-02-06T02:47:52.637Z,4.55
2023-02-06T02:50:21.337Z,4.50
2023-02-06T02:52:47.954Z,5.05
2023-02-06T02:55:23.692Z,4.93
2023-02-06T02:58:02.922Z,4.20
2023-02-06T03:00:31.386Z,4.82
2023-02-06T03:02:58.485Z,4.95
2023-02-06T03:05:26.997Z,5.18
2023-02-06T03:08:10.028Z,5.28
2023-02-06T03:10:53.526Z,5.13
2023-02-06T03:13:30.642Z,4.28
2023-02-06T03:16:07.747Z,4.22
2023-02-06T03:18:49.930Z,3.60
2023-02-06T03:21:19.732Z,3.92
2023-02-06T03:23:49.696Z,4.35
2023-02-06T03:26:20.757Z,4.90
2023-02-06T03:28:54.251Z,4.50
2023-02-06T03:31:27.870Z,3.88
2023-02-06T03:34:06.265Z,3.72
2023-02-06T03:36:33.048Z,4.40
2023-02-06T03:38:59.975Z,4.10
2023-02-06T03:41:34.349Z,3.80
2023-02-06T03:44:02.983Z,4.57
2023-02-06T03:46:32.661Z,4.18
2023-02-06T03:49:03.817Z,4.15
2023-02-06T03:51:35.235Z,3.65
2023-02-06T03:54:05.747Z,3.65
2023-02-06T03:56:43.222Z,4.45
2023-02-06T03:59:09.932Z,3.88
2023-02-06T04:01:45.338Z,4.40
2023-02-06T04:04:15.359Z,4.10
2023-02-06T04:06:41.897Z,4.47
2023-02-06T04:09:08.335Z,4.25
2023-02-06T04:11:34.799Z,5.28
2023-02-06T04:14:01.222Z,5.25
2023-02-06T04:16:27.686Z,4.28
2023-02-06T04:18:54.149Z,4.63
2023-02-06T04:21:20.642Z,5.00
2023-02-06T04:23:47.103Z,4.93
2023-02-06T04:26:13.540Z,4.55
2023-02-06T04:28:39.956Z,4.38
2023-02-06T04:31:06.484Z,4.38
2023-02-06T04:33:33.011Z,4.80
2023-02-06T04:35:59.442Z,4.47
2023-02-06T04:38:25.954Z,4.72
2023-02-06T04:40:52.384Z,4.78
2023-02-06T04:43:18.805Z,5.47
2023-02-06T04:45:46.571Z,5.30
2023-02-06T04:48:13.036Z,4.93
2023-02-06T04:50:39.466Z,4.35
2023-02-06T04:53:05.887Z,4.75
2023-02-06T04:55:32.378Z,4.80
2023-02-06T04:57:58.815Z,4.65
2023-02-06T05:00:25.258Z,4.70
2023-02-06T05:02:51.749Z,5.65
2023-02-06T05:05:18.344Z,4.90
2023-02-06T05:07:44.788Z,6.07
2023-02-06T05:10:11.426Z,4.90
2023-02-06T05:12:37.917Z,5.82
2023-02-06T05:15:04.954Z,5.18
2023-02-06T05:17:31.424Z,5.88
2023-02-06T05:19:58.490Z,5.07
2023-02-06T05:22:25.384Z,5.03
2023-02-06T05:24:51.814Z,5.60
2023-02-06T05:27:18.311Z,5.00
2023-02-06T05:29:44.774Z,5.47
2023-02-06T05:32:11.231Z,5.88
2023-02-06T05:34:37.661Z,5.18
2023-02-06T05:37:04.097Z,5.53
2023-02-06T05:39:30.559Z,5.82
2023-02-06T05:41:56.985Z,6.18
2023-02-06T05:44:23.465Z,6.30
2023-02-06T05:46:49.905Z,6.95
2023-02-06T05:49:16.836Z,8.30
2023-02-06T05:51:43.264Z,6.80
2023-02-06T05:54:09.810Z,5.88
2023-02-06T05:56:36.277Z,6.50
2023-02-06T05:59:02.872Z,6.43
2023-02-06T06:01:29.332Z,5.53
2023-02-06T06:03:56.227Z,7.32
2023-02-06T06:06:22.716Z,6.93
2023-02-06T06:08:49.172Z,7.22
2023-02-06T06:11:15.630Z,4.93
2023-02-06T06:13:42.148Z,4.78
2023-02-06T06:16:08.764Z,6.03
2023-02-06T06:18:35.201Z,6.55
2023-02-06T06:21:01.633Z,5.85
2023-02-06T06:23:28.040Z,5.75
2023-02-06T06:25:54.464Z,6.55
2023-02-06T06:28:22.230Z,8.55
2023-02-06T06:30:48.667Z,8.40
2023-02-06T06:33:16.393Z,8.95
2023-02-06T06:35:42.914Z,7.53
2023-02-06T06:38:09.347Z,8.07
2023-02-06T06:40:35.808Z,6.88
2023-02-06T06:43:02.300Z,6.68
2023-02-06T06:45:28.828Z,7.20
2023-02-06T06:47:55.275Z,8.05
2023-02-06T06:50:21.716Z,7.50
2023-02-06T06:52:48.191Z,6.20
2023-02-06T06:55:14.676Z,7.10
2023-02-06T06:57:41.141Z,5.97
2023-02-06T07:00:09.220Z,7.90
2023-02-06T07:02:35.668Z,6.47
2023-02-06T07:05:02.123Z,6.85
2023-02-06T07:07:28.611Z,5.97
2023-02-06T07:09:55.244Z,6.10
2023-02-06T07:12:21.721Z,5.07
2023-02-06T07:14:48.208Z,5.20
2023-02-06T07:17:14.632Z,4.95
2023-02-06T07:19:41.057Z,5.32
2023-02-06T07:22:07.567Z,5.20
2023-02-06T07:24:34.002Z,4.85
2023-02-06T07:27:00.424Z,5.78
2023-02-06T07:29:26.920Z,5.57
2023-02-06T07:31:53.425Z,5.65
2023-02-06T07:34:19.882Z,5.20
2023-02-06T07:36:46.327Z,4.95
2023-02-06T07:39:12.761Z,5.78
2023-02-06T07:41:39.232Z,5.82
2023-02-06T07:44:06.101Z,4.93
2023-02-06T07:46:33.716Z,4.60
2023-02-06T07:49:00.170Z,4.63
2023-02-06T07:51:26.641Z,5.20
2023-02-06T07:53:53.215Z,5.60
2023-02-06T07:56:20.896Z,5.68
2023-02-06T07:58:52.367Z,6.35
2023-02-06T08:01:19.751Z,6.82
2023-02-06T08:03:48.559Z,6.93
2023-02-06T08:06:15.885Z,6.30
2023-02-06T08:08:43.459Z,7.00
2023-02-06T08:11:15.662Z,6.07
2023-02-06T08:13:43.048Z,6.57
2023-02-06T08:16:17.306Z,5.50
2023-02-06T08:18:44.282Z,6.15
2023-02-06T08:21:22.383Z,5.60
2023-02-06T08:23:54.938Z,6.03
2023-02-06T08:26:22.047Z,5.82
2023-02-06T08:28:50.073Z,5.68
2023-02-06T08:31:20.698Z,5.55
2023-02-06T08:33:48.032Z,5.90
2023-02-06T08:36:15.664Z,5.35
2023-02-06T08:38:42.548Z,6.10
2023-02-06T08:41:18.225Z,6.30
2023-02-06T08:43:46.308Z,5.82
2023-02-06T08:46:15.875Z,5.15
2023-02-06T08:48:42.650Z,22.48
2023-02-06T08:51:10.436Z,16.80
2023-02-06T08:53:37.946Z,13.88
2023-02-06T08:56:08.311Z,9.88
2023-02-06T08:58:35.882Z,7.30
2023-02-06T09:01:10.610Z,7.88
2023-02-06T09:03:37.035Z,12.48
2023-02-06T09:06:09.749Z,10.30
2023-02-06T09:08:37.847Z,18.40
2023-02-06T09:11:11.795Z,10.13
2023-02-06T09:13:39.339Z,13.55
2023-02-06T09:16:06.652Z,8.95
2023-02-06T09:18:34.167Z,8.23
2023-02-06T09:21:17.024Z,7.13
2023-02-06T09:23:46.309Z,6.35
2023-02-06T09:26:17.970Z,6.47
2023-02-06T09:28:45.096Z,6.70
2023-02-06T09:31:11.913Z,7.47
2023-02-06T09:33:39.464Z,6.45
2023-02-06T09:36:08.856Z,6.32
2023-02-06T09:38:36.445Z,6.57
2023-02-06T09:41:11.678Z,7.10
2023-02-06T09:43:38.218Z,6.78
2023-02-06T09:46:09.362Z,6.03
2023-02-06T09:48:39.222Z,6.10
2023-02-06T09:51:18.859Z,6.03
2023-02-06T09:54:08.961Z,5.72
2023-02-06T09:56:52.818Z,5.55
2023-02-06T09:59:43.217Z,6.13
2023-02-06T10:02:32.752Z,5.45
2023-02-06T10:05:14.930Z,5.75
2023-02-06T10:07:57.268Z,5.90
2023-02-06T10:10:38.445Z,4.50
2023-02-06T10:13:18.896Z,4.57
2023-02-06T10:15:48.810Z,5.95
2023-02-06T10:18:24.095Z,7.10
2023-02-06T10:20:55.056Z,6.13
2023-02-06T10:23:30.634Z,5.38
2023-02-06T10:26:27.705Z,5.67
2023-02-06T10:28:57.217Z,5.43
2023-02-06T10:31:44.895Z,5.82
2023-02-06T10:34:39.096Z,5.10
2023-02-06T10:37:27.390Z,6.15
2023-02-06T10:40:29.549Z,4.75
2023-02-06T10:43:27.936Z,5.20
2023-02-06T10:46:06.418Z,5.57
2023-02-06T10:48:41.870Z,4.57
2023-02-06T10:51:21.926Z,5.28
2023-02-06T10:53:59.645Z,6.18
2023-02-06T10:56:29.503Z,6.15
2023-02-06T10:58:59.770Z,5.65
2023-02-06T11:01:29.653Z,5.03
2023-02-06T11:04:03.206Z,5.55
2023-02-06T11:06:30.476Z,4.97
2023-02-06T11:08:57.107Z,5.20
2023-02-06T11:11:29.651Z,4.82
2023-02-06T11:14:05.939Z,5.13
2023-02-06T11:16:36.023Z,4.65
2023-02-06T11:19:15.103Z,4.88
2023-02-06T11:21:41.459Z,5.65
2023-02-06T11:24:16.170Z,6.25
2023-02-06T11:26:49.581Z,5.82
2023-02-06T11:29:20.134Z,4.90
2023-02-06T11:31:58.390Z,5.35
2023-02-06T11:35:09.913Z,4.80
2023-02-06T11:37:39.498Z,6.38
2023-02-06T11:40:23.062Z,5.82
2023-02-06T11:42:55.342Z,6.32
2023-02-06T11:45:33.073Z,6.00
2023-02-06T11:48:00.051Z,5.22
2023-02-06T11:50:35.005Z,6.80
2023-02-06T11:53:17.844Z,6.93
2023-02-06T11:55:46.655Z,6.25
2023-02-06T11:58:13.004Z,6.40
2023-02-06T12:00:42.170Z,6.50
2023-02-06T12:03:32.476Z,6.30
2023-02-06T12:06:15.655Z,6.75
2023-02-06T12:08:54.162Z,7.22
2023-02-06T12:11:25.226Z,7.32
2023-02-06T12:14:04.661Z,7.28
2023-02-06T12:16:34.361Z,6.97
2023-02-06T12:19:01.197Z,6.18
2023-02-06T12:21:42.573Z,6.22
2023-02-06T12:24:29.882Z,6.32
2023-02-06T12:27:00.419Z,6.80
2023-02-06T12:29:37.945Z,6.70
2023-02-06T12:32:16.073Z,6.93
2023-02-06T12:35:00.471Z,6.60
2023-02-06T12:37:45.501Z,7.00
2023-02-06T12:40:36.038Z,6.43
2023-02-06T12:43:09.439Z,6.47
2023-02-06T12:45:53.193Z,7.00
2023-02-06T12:48:45.795Z,7.20
2023-02-06T12:51:32.515Z,6.30
2023-02-06T12:54:04.151Z,7.82
2023-02-06T12:56:36.928Z,6.07
2023-02-06T12:59:09.509Z,6.35
2023-02-06T13:01:36.925Z,7.03
2023-02-06T13:04:06.981Z,5.72
2023-02-06T13:06:47.483Z,6.20
2023-02-06T13:09:21.186Z,5.65
2023-02-06T13:11:47.932Z,8.02
2023-02-06T13:14:29.277Z,5.40
2023-02-06T13:17:11.645Z,5.40
2023-02-06T13:19:40.990Z,6.03
2023-02-06T13:22:10.373Z,6.72
2023-02-06T13:24:38.399Z,5.78
2023-02-06T13:27:07.804Z,4.55
2023-02-06T13:29:38.543Z,4.80
2023-02-06T13:32:11.272Z,4.80
2023-02-06T13:34:45.183Z,4.57
2023-02-06T13:37:35.049Z,5.22
2023-02-06T13:40:23.344Z,6.25
2023-02-06T13:42:56.777Z,4.68
2023-02-06T13:45:32.129Z,4.10
2023-02-06T13:48:28.699Z,4.60
2023-02-06T13:51:32.847Z,3.70
2023-02-06T13:54:35.566Z,3.65
2023-02-06T13:57:20.498Z,3.00
2023-02-06T13:59:53.047Z,3.35
2023-02-06T14:02:27.547Z,3.58
2023-02-06T14:04:54.495Z,4.28
2023-02-06T14:07:46.871Z,3.38
2023-02-06T14:11:10.407Z,3.08
2023-02-06T14:13:45.594Z,5.88
2023-02-06T14:16:37.147Z,5.88
2023-02-06T14:19:06.127Z,4.82
2023-02-06T14:21:58.798Z,3.85
2023-02-06T14:24:49.804Z,5.05
2023-02-06T14:27:51.262Z,4.30
2023-02-06T14:30:39.931Z,4.13
2023-02-06T14:33:18.174Z,4.97
2023-02-06T14:36:16.865Z,4.45
2023-02-06T14:39:03.641Z,4.95
2023-02-06T14:41:31.612Z,4.55
2023-02-06T14:43:59.482Z,5.00
2023-02-06T14:46:27.281Z,4.30
2023-02-06T14:48:57.110Z,4.30
2023-02-06T14:51:35.305Z,5.10
2023-02-06T14:54:07.248Z,5.50
2023-02-06T14:56:38.588Z,5.93
2023-02-06T14:59:23.210Z,5.28
2023-02-06T15:01:52.370Z,4.93
2023-02-06T15:04:26.167Z,4.57
2023-02-06T15:06:58.069Z,4.93
2023-02-06T15:09:43.870Z,5.22
2023-02-06T15:12:24.584Z,4.50
2023-02-06T15:14:54.026Z,4.20
2023-02-06T15:17:22.102Z,4.15
2023-02-06T15:19:49.033Z,4.47
2023-02-06T15:22:23.706Z,4.60
2023-02-06T15:25:08.551Z,4.28
2023-02-06T15:27:37.381Z,4.47
2023-02-06T15:30:21.016Z,4.20
2023-02-06T15:32:51.087Z,4.40
2023-02-06T15:35:21.700Z,4.50
2023-02-06T15:37:48.912Z,4.55
2023-02-06T15:40:20.852Z,5.53
2023-02-06T15:42:48.736Z,5.30
2023-02-06T15:45:22.873Z,5.32
2023-02-06T15:47:54.297Z,4.80
2023-02-06T15:50:26.070Z,5.18
2023-02-06T15:52:52.649Z,4.85
2023-02-06T15:55:34.532Z,5.57
2023-02-06T15:58:04.112Z,5.15
2023-02-06T16:00:34.423Z,5.57
2023-02-06T16:03:05.405Z,5.15
2023-02-06T16:05:35.149Z,5.45
2023-02-06T16:08:03.804Z,5.47
2023-02-06T16:10:35.621Z,5.43
2023-02-06T16:13:09.066Z,10.32
2023-02-06T16:15:38.450Z,8.48
2023-02-06T16:18:23.691Z,11.68
2023-02-06T16:20:50.862Z,8.05
2023-02-06T16:23:28.859Z,5.80
2023-02-06T16:26:19.485Z,5.55
2023-02-06T16:29:01.879Z,5.18
2023-02-06T16:31:31.083Z,7.82
2023-02-06T16:34:03.281Z,7.60
2023-02-06T16:36:32.450Z,6.03
2023-02-06T16:39:04.090Z,5.82
2023-02-06T16:41:41.017Z,5.10
2023-02-06T16:44:13.555Z,4.60
2023-02-06T16:46:40.452Z,4.70
2023-02-06T16:49:15.808Z,5.07
2023-02-06T16:51:44.112Z,5.70
2023-02-06T16:54:27.356Z,7.13
2023-02-06T16:56:55.841Z,4.60
2023-02-06T16:59:22.367Z,5.40
2023-02-06T17:01:49.058Z,5.60
2023-02-06T17:04:15.720Z,4.40
2023-02-06T17:06:42.406Z,4.65
2023-02-06T17:09:10.951Z,4.10
2023-02-06T17:11:38.677Z,4.30
2023-02-06T17:14:05.957Z,4.53
2023-02-06T17:16:33.635Z,4.70
2023-02-06T17:19:00.165Z,3.75
2023-02-06T17:21:29.674Z,4.18
2023-02-06T17:23:56.090Z,5.47
2023-02-06T17:26:23.418Z,4.25
2023-02-06T17:28:50.693Z,6.75
2023-02-06T17:31:18.087Z,4.70
2023-02-06T17:33:44.606Z,4.80
2023-02-06T17:36:18.344Z,3.85
2023-02-06T17:38:45.200Z,4.13
2023-02-06T17:41:11.675Z,5.22
2023-02-06T17:43:38.098Z,4.90
2023-02-06T17:46:05.712Z,4.40
2023-02-06T17:48:36.338Z,4.47
2023-02-06T17:51:04.955Z,4.70
2023-02-06T17:53:31.397Z,4.20
2023-02-06T17:55:57.918Z,4.80
2023-02-06T17:58:24.384Z,4.38
2023-02-06T18:00:50.901Z,3.67
2023-02-06T18:03:18.436Z,3.72
2023-02-06T18:05:47.095Z,4.40
2023-02-06T18:08:14.305Z,4.30
2023-02-06T18:10:40.748Z,3.80
2023-02-06T18:13:07.210Z,3.58
2023-02-06T18:15:33.750Z,3.58
2023-02-06T18:18:00.220Z,3.10
2023-02-06T18:20:26.689Z,3.30
2023-02-06T18:22:53.122Z,3.83
2023-02-06T18:25:19.584Z,3.10
2023-02-06T18:27:46.283Z,3.70
2023-02-06T18:30:14.575Z,3.38
2023-02-06T18:32:41.218Z,3.35
2023-02-06T18:35:08.628Z,4.45
2023-02-06T18:37:35.429Z,4.80
2023-02-06T18:40:02.702Z,3.55
2023-02-06T18:42:47.531Z,3.88
2023-02-06T18:45:14.079Z,3.53
2023-02-06T18:47:42.275Z,4.03
2023-02-06T18:50:10.990Z,3.15
2023-02-06T18:52:38.442Z,3.88
2023-02-06T18:55:07.892Z,3.88
2023-02-06T18:57:34.809Z,3.60
2023-02-06T19:00:01.276Z,3.13
2023-02-06T19:02:28.254Z,4.20
2023-02-06T19:04:57.558Z,5.40
2023-02-06T19:07:24.543Z,4.30
2023-02-06T19:09:56.298Z,4.07
2023-02-06T19:12:22.744Z,3.38
2023-02-06T19:14:49.373Z,4.35
2023-02-06T19:17:15.854Z,5.18
2023-02-06T19:19:42.281Z,7.63
2023-02-06T19:22:08.719Z,6.25
2023-02-06T19:24:35.280Z,5.68
2023-02-06T19:27:02.054Z,6.40
2023-02-06T19:29:35.668Z,5.38
2023-02-06T19:32:04.847Z,5.05
2023-02-06T19:34:33.475Z,4.35
2023-02-06T19:37:01.367Z,4.10
2023-02-06T19:39:29.997Z,4.35
2023-02-06T19:41:56.464Z,3.92
2023-02-06T19:44:22.885Z,4.00
2023-02-06T19:46:49.482Z,3.60
2023-02-06T19:49:16.044Z,3.95
2023-02-06T19:51:44.738Z,3.88
2023-02-06T19:54:11.164Z,4.43
2023-02-06T19:56:41.569Z,5.07
2023-02-06T19:59:18.160Z,4.13
2023-02-06T20:02:03.005Z,3.88
2023-02-06T20:04:34.084Z,4.15
2023-02-06T20:07:01.515Z,3.90
2023-02-06T20:09:28.560Z,4.03
2023-02-06T20:11:56.058Z,4.00
2023-02-06T20:14:23.564Z,5.05
2023-02-06T20:16:50.358Z,4.88
2023-02-06T20:19:22.959Z,4.88
2023-02-06T20:21:52.821Z,4.10
2023-02-06T20:24:22.430Z,4.80
2023-02-06T20:26:52.975Z,4.85
2023-02-06T20:29:26.674Z,5.03
2023-02-06T20:31:54.424Z,4.63
2023-02-06T20:34:21.857Z,5.43
2023-02-06T20:36:49.620Z,6.22
2023-02-06T20:39:16.838Z,4.82
2023-02-06T20:41:45.309Z,4.80
2023-02-06T20:44:13.602Z,4.72
2023-02-06T20:46:40.990Z,4.95
2023-02-06T20:49:13.390Z,5.05
2023-02-06T20:51:39.880Z,4.80
2023-02-06T20:54:06.560Z,5.15
2023-02-06T20:56:33.689Z,4.75
2023-02-06T20:59:01.214Z,5.78
2023-02-06T21:01:29.562Z,4.80
2023-02-06T21:03:59.213Z,5.20
2023-02-06T21:06:26.012Z,6.35
2023-02-06T21:08:57.163Z,6.05
2023-02-06T21:11:24.160Z,5.55
2023-02-06T21:13:50.695Z,5.70
2023-02-06T21:16:17.280Z,5.80
2023-02-06T21:18:43.760Z,5.40
2023-02-06T21:21:13.507Z,4.40
2023-02-06T21:23:41.815Z,5.38
2023-02-06T21:26:10.747Z,5.32
2023-02-06T21:28:38.021Z,5.45
2023-02-06T21:31:11.853Z,5.60
2023-02-06T21:33:38.359Z,5.45
2023-02-06T21:36:06.888Z,5.88
2023-02-06T21:38:34.971Z,4.95
2023-02-06T21:41:06.320Z,4.82
2023-02-06T21:43:33.783Z,4.82
2023-02-06T21:46:00.360Z,5.13
2023-02-06T21:48:27.045Z,5.25
2023-02-06T21:50:53.548Z,4.93
2023-02-06T21:53:20.216Z,5.13
2023-02-06T21:55:46.686Z,5.22
2023-02-06T21:58:14.622Z,4.38
2023-02-06T22:00:46.314Z,5.60
2023-02-06T22:03:13.631Z,4.80
2023-02-06T22:05:40.258Z,4.68
2023-02-06T22:08:06.727Z,4.85
2023-02-06T22:10:36.832Z,5.38
2023-02-06T22:13:05.257Z,4.80
2023-02-06T22:15:32.863Z,4.72
2023-02-06T22:17:59.424Z,4.65
2023-02-06T22:20:26.211Z,4.50
2023-02-06T22:22:54.522Z,4.55
2023-02-06T22:25:21.574Z,5.25
2023-02-06T22:27:48.088Z,4.80
2023-02-06T22:30:14.610Z,5.13
2023-02-06T22:32:41.171Z,4.95
2023-02-06T22:35:07.808Z,4.80
2023-02-06T22:37:34.459Z,5.03
2023-02-06T22:40:00.916Z,5.10
2023-02-06T22:42:27.367Z,4.95
2023-02-06T22:44:53.788Z,5.28
2023-02-06T22:47:20.323Z,5.60
2023-02-06T22:49:46.830Z,5.18
2023-02-06T22:52:31.917Z,5.50
2023-02-06T22:54:58.328Z,4.80
2023-02-06T22:57:24.808Z,5.65
2023-02-06T22:59:51.227Z,4.88
2023-02-06T23:02:17.661Z,5.07
2023-02-06T23:04:44.105Z,5.47
2023-02-06T23:07:10.538Z,5.45
2023-02-06T23:09:38.307Z,6.10
2023-02-06T23:12:05.396Z,5.13
2023-02-06T23:14:33.102Z,5.05
2023-02-06T23:17:00.826Z,5.30
2023-02-06T23:19:27.462Z,5.38
2023-02-06T23:21:54.050Z,6.15
2023-02-06T23:24:20.718Z,5.55
2023-02-06T23:26:49.140Z,6.20
2023-02-06T23:29:17.903Z,5.47
2023-02-06T23:31:45.875Z,5.53
2023-02-06T23:34:12.607Z,5.65
2023-02-06T23:36:39.077Z,5.28
2023-02-06T23:39:05.828Z,5.65
2023-02-06T23:41:32.720Z,5.70
2023-02-06T23:44:04.696Z,4.57
2023-02-06T23:46:34.462Z,5.45
2023-02-06T23:49:00.916Z,5.65
2023-02-06T23:51:27.930Z,5.55
2023-02-06T23:53:54.498Z,5.15
2023-02-06T23:56:27.492Z,5.15
2023-02-06T23:58:55.318Z,5.18
